createdAt,value
2023-05-20T00:00:17.128Z,100.00
2023-05-20T00:12:17.610Z,100.00
2023-05-20T00:24:18.106Z,99.71
2023-05-20T00:36:18.496Z,100.00
2023-05-20T00:48:19.322Z,100.00
2023-05-20T01:00:19.396Z,100.00
2023-05-20T01:12:19.858Z,100.00
2023-05-20T01:24:20.315Z,99.59
2023-05-20T01:36:20.774Z,99.41
2023-05-20T01:48:21.227Z,100.00
2023-05-20T02:00:21.673Z,100.00
2023-05-20T02:12:22.122Z,100.00
2023-05-20T02:24:22.595Z,100.00
2023-05-20T02:36:23.071Z,100.00
2023-05-20T02:48:23.487Z,100.00
2023-05-20T03:00:23.946Z,100.00
2023-05-20T03:12:24.555Z,100.00
2023-05-20T03:24:24.834Z,100.00
2023-05-20T03:36:25.312Z,100.00
2023-05-20T03:48:25.781Z,100.00
2023-05-20T04:00:26.207Z,100.00
2023-05-20T04:12:26.632Z,100.00
2023-05-20T04:24:27.120Z,100.00
2023-05-20T04:36:27.551Z,100.00
2023-05-20T04:48:28.037Z,100.00
2023-05-20T05:00:28.466Z,100.00
2023-05-20T05:12:28.921Z,100.00
2023-05-20T05:24:29.386Z,100.00
2023-05-20T05:36:29.819Z,98.73
2023-05-20T05:48:30.260Z,99.91
2023-05-20T06:00:30.740Z,96.42
2023-05-20T06:12:31.198Z,94.23
2023-05-20T06:24:31.666Z,89.45
2023-05-20T06:36:33.691Z,89.74
2023-05-20T06:48:32.571Z,78.51
2023-05-20T07:00:33.017Z,71.90
2023-05-20T07:12:36.091Z,70.04
2023-05-20T07:24:33.914Z,70.69
2023-05-20T07:36:34.372Z,71.01
2023-05-20T07:48:34.812Z,67.29
2023-05-20T08:00:35.280Z,69.72
2023-05-20T08:12:35.719Z,63.75
2023-05-20T08:24:36.183Z,71.38
2023-05-20T08:36:36.650Z,66.87
2023-05-20T08:48:37.129Z,65.41
2023-05-20T09:00:37.571Z,61.56
2023-05-20T09:12:38.005Z,63.24
2023-05-20T09:24:38.484Z,60.88
2023-05-20T09:36:38.930Z,63.41
2023-05-20T09:48:39.355Z,63.78
2023-05-20T10:00:39.854Z,65.13
2023-05-20T10:12:40.264Z,58.95
2023-05-20T10:24:40.874Z,60.91
2023-05-20T10:36:42.803Z,61.96
2023-05-20T10:48:41.736Z,63.50
2023-05-20T11:00:42.140Z,59.80
2023-05-20T11:12:42.618Z,60.86
2023-05-20T11:24:43.133Z,59.45
2023-05-20T11:36:43.497Z,59.04
2023-05-20T11:48:43.912Z,61.02
2023-05-20T12:00:51.703Z,61.02
2023-05-20T12:12:44.862Z,58.90
2023-05-20T12:24:45.317Z,55.33
2023-05-20T12:36:45.723Z,56.51
2023-05-20T12:48:46.184Z,58.11
2023-05-20T13:00:46.680Z,55.72
2023-05-20T13:12:47.111Z,56.97
2023-05-20T13:24:47.552Z,50.67
2023-05-20T13:36:48.040Z,53.72
2023-05-20T13:48:48.479Z,51.89
2023-05-20T14:00:48.955Z,49.72
2023-05-20T14:12:49.386Z,52.98
2023-05-20T14:24:49.839Z,85.12
2023-05-20T14:36:50.332Z,79.73
2023-05-20T14:48:50.767Z,69.57
2023-05-20T15:00:51.287Z,70.48
2023-05-20T15:12:51.661Z,75.15
2023-05-20T15:24:52.132Z,74.60
2023-05-20T15:48:53.059Z,70.24
2023-05-20T16:00:53.555Z,58.40
2023-05-20T16:12:53.952Z,54.35
2023-05-20T16:24:54.434Z,53.12
2023-05-20T16:36:54.899Z,57.93
2023-05-20T16:48:55.338Z,59.89
2023-05-20T17:00:55.822Z,63.51
2023-05-20T17:12:56.286Z,67.23
2023-05-20T17:24:56.745Z,69.95
2023-05-20T17:36:57.193Z,73.09
2023-05-20T17:48:57.573Z,75.38
2023-05-20T18:00:58.092Z,77.71
2023-05-20T18:12:58.522Z,79.42
2023-05-20T18:24:58.967Z,80.93
2023-05-20T18:36:59.457Z,82.11
2023-05-20T18:48:59.897Z,84.79
2023-05-20T19:01:00.361Z,85.71
2023-05-20T19:13:00.787Z,86.55
2023-05-20T19:25:01.253Z,87.91
2023-05-20T19:37:01.739Z,87.34
2023-05-20T19:49:02.177Z,88.00
2023-05-20T20:01:02.610Z,88.89
2023-05-20T20:13:03.064Z,89.62
2023-05-20T20:25:03.552Z,91.30
2023-05-20T20:37:03.988Z,89.35
2023-05-20T20:49:04.445Z,89.75
2023-05-20T21:01:04.919Z,91.12
2023-05-20T21:13:05.366Z,91.67
2023-05-20T21:25:05.781Z,91.14
2023-05-20T21:37:06.242Z,93.19
2023-05-20T21:49:06.692Z,95.39
2023-05-20T22:01:07.235Z,94.03
2023-05-20T22:13:07.604Z,93.06
2023-05-20T22:25:08.104Z,96.02
2023-05-20T22:37:08.545Z,93.20
2023-05-20T22:49:08.962Z,93.97
2023-05-20T23:01:09.461Z,95.36
2023-05-20T23:13:09.878Z,96.00
2023-05-20T23:25:10.381Z,95.98
2023-05-20T23:37:10.826Z,94.48
2023-05-20T23:49:11.223Z,96.04
